createdAt,value
2018-04-16T16:24:50.089Z,16.30
2018-04-16T16:27:17.723Z,16.40
2018-04-16T16:29:45.506Z,13.60
2018-04-16T16:32:13.161Z,13.87
2018-04-16T16:34:40.765Z,12.00
2018-04-16T16:37:09.155Z,12.47
2018-04-16T16:39:36.793Z,13.77
2018-04-16T16:42:05.274Z,12.47
2018-04-16T16:44:33.636Z,13.27
2018-04-16T16:47:01.281Z,15.57
2018-04-16T16:49:29.502Z,15.30
2018-04-16T16:51:57.849Z,14.80
2018-04-16T16:54:25.458Z,12.20
2018-04-16T16:56:54.120Z,13.43
2018-04-16T16:59:22.256Z,13.97
2018-04-16T17:01:49.841Z,12.00
2018-04-16T17:06:26.569Z,12.53
2018-04-16T17:08:54.167Z,12.27
2018-04-16T17:11:22.819Z,12.40
2018-04-16T17:13:55.339Z,12.30
2018-04-16T17:16:36.778Z,13.30
2018-04-16T17:19:16.189Z,12.67
2018-04-16T17:21:56.577Z,12.17
2018-04-16T17:24:35.019Z,11.73
2018-04-16T17:27:13.811Z,12.20
2018-04-16T17:29:52.025Z,11.83
2018-04-16T17:32:30.075Z,12.30
2018-04-16T17:35:08.086Z,11.77
2018-04-16T17:37:38.023Z,12.23
2018-04-16T17:40:16.704Z,12.87
2018-04-16T17:42:52.619Z,13.97
2018-04-16T17:45:22.608Z,14.23
2018-04-16T17:47:50.544Z,14.63
2018-04-16T17:50:22.151Z,13.53
2018-04-16T17:52:57.678Z,13.97
2018-04-16T17:55:34.429Z,15.60
2018-04-16T17:58:14.589Z,14.00
2018-04-16T18:00:50.794Z,13.73
2018-04-16T18:03:24.776Z,15.30
2018-04-16T18:06:03.202Z,14.20
2018-04-16T18:08:39.742Z,15.17
2018-04-16T18:11:18.336Z,14.17
2018-04-16T18:13:56.361Z,13.93
2018-04-16T18:16:31.165Z,14.50
2018-04-16T18:19:05.134Z,15.40
2018-04-16T18:21:43.794Z,14.47
2018-04-16T18:24:21.460Z,15.00
2018-04-16T18:26:53.495Z,14.47
2018-04-16T18:29:28.421Z,15.53
2018-04-16T18:32:07.556Z,14.00
2018-04-16T18:34:47.308Z,13.60
2018-04-16T18:37:26.744Z,13.93
2018-04-16T18:39:56.339Z,14.03
2018-04-16T18:42:34.945Z,13.63
2018-04-16T18:45:13.875Z,13.53
2018-04-16T18:47:53.039Z,13.50
2018-04-16T18:50:27.052Z,13.30
2018-04-16T18:53:06.057Z,12.90
2018-04-16T18:55:45.008Z,13.03
2018-04-16T18:58:23.195Z,13.87
2018-04-16T19:00:52.660Z,13.00
2018-04-16T19:03:28.443Z,13.00
2018-04-16T19:06:09.801Z,13.73
2018-04-16T19:08:38.354Z,13.70
2018-04-16T19:11:11.811Z,14.60
2018-04-16T19:13:40.403Z,15.97
2018-04-16T19:16:19.621Z,17.33
2018-04-16T19:18:47.974Z,19.73
2018-04-16T19:21:21.157Z,21.40
2018-04-16T19:23:48.765Z,24.17
2018-04-16T19:26:16.354Z,26.90
2018-04-16T19:28:44.077Z,28.37
2018-04-16T19:31:12.534Z,28.63
2018-04-16T19:33:46.428Z,31.13
2018-04-16T19:36:14.128Z,32.93
2018-04-16T19:38:41.715Z,32.97
2018-04-16T19:41:09.308Z,35.00
2018-04-16T19:43:36.919Z,35.83
2018-04-16T19:46:04.587Z,36.40
2018-04-16T19:48:37.761Z,36.17
2018-04-16T19:51:05.344Z,37.07
2018-04-16T19:53:33.106Z,37.70
2018-04-16T19:56:06.376Z,38.23
2018-04-16T19:58:33.981Z,37.80
2018-04-16T20:01:01.614Z,47.00
2018-04-16T20:03:34.822Z,50.03
2018-04-16T20:06:02.487Z,50.43
2018-04-16T20:08:30.111Z,49.77
2018-04-16T20:10:57.855Z,49.77
2018-04-16T20:13:25.543Z,49.93
2018-04-16T20:15:53.173Z,48.93
2018-04-16T20:18:20.808Z,50.43
2018-04-16T20:20:49.207Z,50.10
2018-04-16T20:23:16.894Z,49.57
2018-04-16T20:25:44.542Z,50.73
2018-04-16T20:28:12.899Z,48.43
2018-04-16T20:30:41.295Z,49.17
2018-04-16T20:33:08.887Z,47.30
2018-04-16T20:35:36.627Z,48.60
2018-04-16T20:38:04.272Z,48.43
2018-04-16T20:40:31.859Z,48.23
2018-04-16T20:42:59.490Z,47.23
2018-04-16T20:45:27.155Z,47.37
2018-04-16T20:47:55.578Z,46.47
2018-04-16T20:50:23.179Z,46.07
2018-04-16T20:52:50.795Z,45.37
2018-04-16T20:55:18.380Z,45.63
2018-04-16T20:57:46.769Z,47.03
2018-04-16T21:00:14.388Z,49.13
2018-04-16T21:02:41.992Z,47.00
2018-04-16T21:05:09.677Z,48.57
2018-04-16T21:07:37.306Z,46.80
2018-04-16T21:12:37.847Z,46.60
2018-04-16T21:15:05.494Z,45.73
2018-04-16T21:17:33.839Z,46.90
2018-04-16T21:20:02.239Z,46.53
2018-04-16T21:22:30.592Z,45.73
2018-04-16T21:24:58.171Z,45.80
2018-04-16T21:27:25.747Z,44.03
2018-04-16T21:29:54.131Z,43.47
2018-04-16T21:32:21.751Z,42.93
2018-04-16T21:34:49.324Z,44.37
2018-04-16T21:37:16.935Z,42.30
2018-04-16T21:39:44.507Z,41.57
2018-04-16T21:42:12.120Z,41.73
2018-04-16T21:44:40.463Z,42.17
2018-04-16T21:47:08.122Z,40.87
2018-04-16T21:49:35.704Z,39.23
2018-04-16T21:52:04.043Z,40.17
2018-04-16T21:54:31.679Z,39.60
2018-04-16T21:56:59.251Z,38.87
2018-04-16T21:59:26.870Z,38.93
2018-04-16T22:01:54.444Z,37.97
2018-04-16T22:04:22.051Z,39.30
2018-04-16T22:06:49.671Z,36.80
2018-04-16T22:09:17.253Z,36.57
2018-04-16T22:11:44.880Z,36.50
2018-04-16T22:14:12.456Z,36.97
2018-04-16T22:16:40.080Z,36.80
2018-04-16T22:19:07.695Z,34.60
2018-04-16T22:21:35.311Z,35.00
2018-04-16T22:24:02.945Z,35.00
2018-04-16T22:26:31.287Z,34.53
2018-04-16T22:28:58.896Z,34.23
2018-04-16T22:31:27.497Z,33.03
2018-04-16T22:33:55.147Z,34.73
2018-04-16T22:36:22.719Z,32.83
2018-04-16T22:38:50.343Z,33.00
2018-04-16T22:41:18.691Z,33.43
2018-04-16T22:43:46.275Z,31.97
2018-04-16T22:46:14.618Z,32.23
2018-04-16T22:48:42.196Z,31.67
2018-04-16T22:51:10.567Z,30.63
2018-04-16T22:53:38.150Z,30.60
2018-04-16T22:56:05.775Z,29.47
2018-04-16T22:58:33.356Z,29.57
2018-04-16T23:01:01.740Z,30.37
2018-04-16T23:03:30.082Z,28.60
2018-04-16T23:05:57.711Z,29.67
2018-04-16T23:08:25.337Z,28.00
2018-04-16T23:10:52.951Z,28.00
2018-04-16T23:13:20.531Z,28.67
2018-04-16T23:15:48.916Z,27.77
2018-04-16T23:18:17.300Z,27.00
2018-04-16T23:20:45.684Z,27.07
2018-04-16T23:23:13.260Z,26.40
2018-04-16T23:25:40.877Z,26.77
2018-04-16T23:28:09.279Z,25.50
2018-04-16T23:30:36.850Z,25.93
2018-04-16T23:33:04.431Z,25.80
2018-04-16T23:35:32.049Z,27.07
2018-04-16T23:38:00.391Z,26.27
2018-04-16T23:40:28.033Z,25.03
2018-04-16T23:42:55.618Z,24.40
2018-04-16T23:45:23.198Z,24.87
2018-04-16T23:47:51.542Z,23.43
2018-04-16T23:50:19.168Z,24.13
2018-04-16T23:52:46.779Z,23.90
2018-04-16T23:55:15.168Z,23.30
2018-04-16T23:57:42.779Z,24.30
